Date,TemperatureHighF,TemperatureAvgF,TemperatureLowF,DewpointHighF,DewpointAvgF,DewpointLowF,HumidityHigh,HumidityAvg,HumidityLow,PressureMaxIn,PressureMinIn,WindSpeedMaxMPH,WindSpeedAvgMPH,GustSpeedMaxMPH,PrecipitationSumIn
2013-1-1,56,54,51,52,44,32,85,70,28,0.00,0.00,0,0,0,1.57
2013-1-2,51,43,39,45,34,32,84,55,40,0.00,0.00,0,0,0,0.00
2013-1-3,47,39,31,32,32,32,68,40,14,0.00,0.00,0,0,0,0.00
2013-1-4,56,39,28,32,32,32,67,32,10,0.00,0.00,0,0,0,0.00
2013-1-5,48,39,31,32,32,32,72,44,14,0.00,0.00,0,0,0,0.12
2013-1-6,54,44,38,39,33,32,78,54,20,0.00,0.00,0,0,0,0.00
2013-1-7,61,42,31,32,32,32,78,39,9,0.00,0.00,0,0,0,0.00
2013-1-8,65,50,34,32,32,32,61,35,13,0.00,0.00,0,0,0,0.00
2013-1-9,67,59,53,57,38,32,83,47,30,0.00,0.00,0,0,0,0.04
2013-1-10,68,65,62,61,54,41,84,68,40,0.00,0.00,0,0,0,0.12
2013-1-11,68,66,62,63,53,41,81,65,39,0.00,0.00,0,0,0,0.28
2013-1-12,76,69,64,59,44,32,75,45,21,0.00,0.00,0,0,0,0.00
2013-1-13,74,67,58,61,48,37,76,52,27,0.00,0.00,0,0,0,1.22
2013-1-14,58,47,41,48,41,32,83,79,67,0.00,0.00,0,0,0,1.50
2013-1-15,51,48,44,46,44,39,89,86,82,0.00,0.00,0,0,0,1.46
2013-1-16,51,48,45,48,44,39,90,86,81,0.00,0.00,0,0,0,0.67
2013-1-17,46,41,33,43,36,32,87,67,35,0.00,0.00,0,0,0,0.59
2013-1-18,54,40,31,32,32,32,64,37,10,0.00,0.00,0,0,0,0.00
2013-1-19,62,43,30,43,32,32,83,43,9,0.00,0.00,0,0,0,0.00
2013-1-20,67,47,33,43,32,32,79,40,9,0.00,0.00,0,0,0,0.00
2013-1-21,60,44,34,45,32,32,81,36,9,0.00,0.00,0,0,0,0.00
2013-1-22,51,38,29,32,32,32,35,15,11,0.00,0.00,0,0,0,0.00
2013-1-23,60,44,30,32,32,32,41,25,9,0.00,0.00,0,0,0,0.00
2013-1-24,62,52,45,32,32,32,53,25,9,0.00,0.00,0,0,0,0.00
2013-1-25,67,56,45,43,33,32,59,19,9,0.00,0.00,0,0,0,0.08
2013-1-26,56,49,44,45,34,32,79,43,12,0.00,0.00,0,0,0,0.08
2013-1-27,64,54,46,32,32,32,37,18,8,0.00,0.00,0,0,0,0.00
2013-1-28,66,56,49,37,33,32,58,33,13,0.00,0.00,0,0,0,0.00
2013-1-29,73,62,48,57,41,34,79,49,24,0.00,0.00,0,0,0,0.00
2013-1-30,70,58,42,61,45,32,81,54,17,0.00,0.00,0,0,0,3.07
2013-1-31,57,43,33,32,32,32,32,19,10,0.00,0.00,0,0,0,0.00
2013-2-1,49,40,30,32,32,32,24,15,11,0.00,0.00,0,0,0,0.00
2013-2-2,59,40,26,32,32,32,69,31,9,0.00,0.00,0,0,0,0.12
2013-2-3,63,46,32,39,32,32,82,36,8,0.00,0.00,0,0,0,0.04
2013-2-4,54,43,33,32,32,32,44,25,10,0.00,0.00,0,0,0,0.00
2013-2-5,64,52,42,34,32,32,56,36,16,0.00,0.00,0,0,0,0.00
2013-2-6,73,56,49,46,36,32,80,41,8,0.00,0.00,0,0,0,0.00
2013-2-7,52,50,48,46,40,32,79,66,28,0.00,0.00,0,0,0,0.51